sensor_id;sensor_type;location;lat;lon;timestamp;pressure;altitude;pressure_sealevel;temperature;humidity
11223;BME280;5668;52.012;8.724;2022-12-18T00:00:05;101540.19;;;-3.60;77.98
11223;BME280;5668;52.012;8.724;2022-12-18T00:02:32;101538.50;;;-3.61;77.81
11223;BME280;5668;52.012;8.724;2022-12-18T00:05:00;101545.28;;;-3.60;78.47
11223;BME280;5668;52.012;8.724;2022-12-18T00:07:28;101545.31;;;-3.57;78.24
11223;BME280;5668;52.012;8.724;2022-12-18T00:09:55;101552.09;;;-3.57;78.41
11223;BME280;5668;52.012;8.724;2022-12-18T00:12:22;101549.53;;;-3.59;78.54
11223;BME280;5668;52.012;8.724;2022-12-18T00:14:50;101541.03;;;-3.61;78.52
11223;BME280;5668;52.012;8.724;2022-12-18T00:17:17;101539.38;;;-3.62;78.56
11223;BME280;5668;52.012;8.724;2022-12-18T00:19:44;101534.28;;;-3.62;78.24
11223;BME280;5668;52.012;8.724;2022-12-18T00:22:11;101533.41;;;-3.61;78.25
11223;BME280;5668;52.012;8.724;2022-12-18T00:24:40;101540.22;;;-3.61;78.31
11223;BME280;5668;52.012;8.724;2022-12-18T00:27:07;101541.06;;;-3.58;78.40
11223;BME280;5668;52.012;8.724;2022-12-18T00:29:34;101547.00;;;-3.57;78.07
11223;BME280;5668;52.012;8.724;2022-12-18T00:32:01;101541.06;;;-3.58;77.97
11223;BME280;5668;52.012;8.724;2022-12-18T00:34:29;101551.19;;;-3.61;78.36
11223;BME280;5668;52.012;8.724;2022-12-18T00:36:56;101560.53;;;-3.61;78.41
11223;BME280;5668;52.012;8.724;2022-12-18T00:39:23;101568.16;;;-3.61;78.14
11223;BME280;5668;52.012;8.724;2022-12-18T00:41:52;101558.81;;;-3.61;77.90
11223;BME280;5668;52.012;8.724;2022-12-18T00:44:48;101545.25;;;-3.64;78.33
11223;BME280;5668;52.012;8.724;2022-12-18T00:47:15;101535.94;;;-3.65;78.53
11223;BME280;5668;52.012;8.724;2022-12-18T00:49:43;101545.25;;;-3.64;78.13
11223;BME280;5668;52.012;8.724;2022-12-18T00:52:10;101544.41;;;-3.65;78.03
11223;BME280;5668;52.012;8.724;2022-12-18T00:54:37;101543.53;;;-3.67;77.94
11223;BME280;5668;52.012;8.724;2022-12-18T00:57:05;101538.44;;;-3.68;77.59
11223;BME280;5668;52.012;8.724;2022-12-18T00:59:33;101544.38;;;-3.69;77.73
11223;BME280;5668;52.012;8.724;2022-12-18T01:02:00;101547.72;;;-3.72;77.49
11223;BME280;5668;52.012;8.724;2022-12-18T01:04:27;101532.50;;;-3.72;77.58
11223;BME280;5668;52.012;8.724;2022-12-18T01:06:54;101531.59;;;-3.75;77.64
11223;BME280;5668;52.012;8.724;2022-12-18T01:09:21;101544.31;;;-3.77;77.49
11223;BME280;5668;52.012;8.724;2022-12-18T01:11:49;101540.06;;;-3.78;76.70
11223;BME280;5668;52.012;8.724;2022-12-18T01:14:17;101536.63;;;-3.84;76.72
11223;BME280;5668;52.012;8.724;2022-12-18T01:16:44;101539.16;;;-3.86;76.86
11223;BME280;5668;52.012;8.724;2022-12-18T01:19:12;101538.31;;;-3.86;76.77
11223;BME280;5668;52.012;8.724;2022-12-18T01:21:39;101539.16;;;-3.86;76.67
11223;BME280;5668;52.012;8.724;2022-12-18T01:24:06;101534.06;;;-3.87;76.92
11223;BME280;5668;52.012;8.724;2022-12-18T01:26:33;101534.03;;;-3.92;76.45
11223;BME280;5668;52.012;8.724;2022-12-18T01:29:01;101529.78;;;-3.93;76.13
11223;BME280;5668;52.012;8.724;2022-12-18T01:31:32;101528.06;;;-3.96;76.88
11223;BME280;5668;52.012;8.724;2022-12-18T01:34:01;101530.59;;;-3.99;76.52
11223;BME280;5668;52.012;8.724;2022-12-18T01:36:30;101535.59;;;-4.03;76.65
11223;BME280;5668;52.012;8.724;2022-12-18T01:39:00;101528.00;;;-4.03;76.97
11223;BME280;5668;52.012;8.724;2022-12-18T01:41:30;101534.72;;;-4.05;76.96
11223;BME280;5668;52.012;8.724;2022-12-18T01:44:56;101533.91;;;-4.04;77.08
11223;BME280;5668;52.012;8.724;2022-12-18T01:47:28;101535.59;;;-4.03;77.07
11223;BME280;5668;52.012;8.724;2022-12-18T01:49:57;101540.69;;;-4.03;76.89
11223;BME280;5668;52.012;8.724;2022-12-18T01:52:28;101548.28;;;-4.06;77.21
11223;BME280;5668;52.012;8.724;2022-12-18T01:54:56;101548.19;;;-4.12;76.56
11223;BME280;5668;52.012;8.724;2022-12-18T01:57:25;101538.88;;;-4.16;77.05
11223;BME280;5668;52.012;8.724;2022-12-18T01:59:55;101532.13;;;-4.11;76.77
11223;BME280;5668;52.012;8.724;2022-12-18T02:02:27;101530.47;;;-4.09;77.09
11223;BME280;5668;52.012;8.724;2022-12-18T02:04:55;101531.31;;;-4.10;77.13
11223;BME280;5668;52.012;8.724;2022-12-18T02:07:29;101540.66;;;-4.08;77.21
11223;BME280;5668;52.012;8.724;2022-12-18T02:10:02;101536.44;;;-4.07;77.36
11223;BME280;5668;52.012;8.724;2022-12-18T02:12:39;101536.44;;;-4.07;77.49
11223;BME280;5668;52.012;8.724;2022-12-18T02:15:13;101527.97;;;-4.06;77.76
11223;BME280;5668;52.012;8.724;2022-12-18T02:17:46;101539.81;;;-4.04;77.94
11223;BME280;5668;52.012;8.724;2022-12-18T02:20:20;101535.66;;;-4.00;77.97
11223;BME280;5668;52.012;8.724;2022-12-18T02:23:04;101532.28;;;-3.99;78.22
11223;BME280;5668;52.012;8.724;2022-12-18T02:25:51;101539.03;;;-3.98;78.04
11223;BME280;5668;52.012;8.724;2022-12-18T02:28:22;101539.06;;;-3.95;78.23
11223;BME280;5668;52.012;8.724;2022-12-18T02:30:54;101533.13;;;-3.97;77.74
11223;BME280;5668;52.012;8.724;2022-12-18T02:33:24;101533.97;;;-3.97;78.25
11223;BME280;5668;52.012;8.724;2022-12-18T02:35:53;101537.34;;;-3.96;77.97
11223;BME280;5668;52.012;8.724;2022-12-18T02:38:23;101529.75;;;-3.95;78.16
11223;BME280;5668;52.012;8.724;2022-12-18T02:40:54;101534.00;;;-3.95;77.92
11223;BME280;5668;52.012;8.724;2022-12-18T02:43:21;101519.56;;;-3.98;77.81
11223;BME280;5668;52.012;8.724;2022-12-18T02:45:50;101510.28;;;-3.97;77.74
11223;BME280;5668;52.012;8.724;2022-12-18T02:48:21;101511.13;;;-3.97;77.85
11223;BME280;5668;52.012;8.724;2022-12-18T02:50:55;101517.06;;;-3.96;77.54
11223;BME280;5668;52.012;8.724;2022-12-18T02:53:30;101515.34;;;-3.97;77.91
11223;BME280;5668;52.012;8.724;2022-12-18T02:56:07;101520.44;;;-3.97;77.67
11223;BME280;5668;52.012;8.724;2022-12-18T02:58:42;101522.97;;;-3.99;77.33
11223;BME280;5668;52.012;8.724;2022-12-18T03:01:16;101522.13;;;-3.99;77.38
11223;BME280;5668;52.012;8.724;2022-12-18T03:03:53;101528.03;;;-4.00;77.49
11223;BME280;5668;52.012;8.724;2022-12-18T03:06:26;101528.00;;;-4.02;77.31
11223;BME280;5668;52.012;8.724;2022-12-18T03:08:58;101536.47;;;-4.03;77.60
11223;BME280;5668;52.012;8.724;2022-12-18T03:11:30;101543.22;;;-4.03;77.49
11223;BME280;5668;52.012;8.724;2022-12-18T03:14:21;101544.06;;;-4.04;77.09
11223;BME280;5668;52.012;8.724;2022-12-18T03:16:53;101538.13;;;-4.05;77.02
11223;BME280;5668;52.012;8.724;2022-12-18T03:19:24;101536.41;;;-4.06;76.94
11223;BME280;5668;52.012;8.724;2022-12-18T03:21:55;101537.28;;;-4.05;77.25
11223;BME280;5668;52.012;8.724;2022-12-18T03:24:25;101538.97;;;-4.04;77.43
11223;BME280;5668;52.012;8.724;2022-12-18T03:27:00;101541.50;;;-4.06;77.11
11223;BME280;5668;52.012;8.724;2022-12-18T03:29:31;101533.00;;;-4.11;77.08
11223;BME280;5668;52.012;8.724;2022-12-18T03:32:04;101526.19;;;-4.15;76.37
11223;BME280;5668;52.012;8.724;2022-12-18T03:34:35;101535.41;;;-4.24;76.15
11223;BME280;5668;52.012;8.724;2022-12-18T03:37:03;101526.06;;;-4.28;76.62
11223;BME280;5668;52.012;8.724;2022-12-18T03:39:31;101542.97;;;-4.29;76.88
11223;BME280;5668;52.012;8.724;2022-12-18T03:42:05;101528.59;;;-4.27;77.19
11223;BME280;5668;52.012;8.724;2022-12-18T03:44:40;101526.94;;;-4.25;77.36
11223;BME280;5668;52.012;8.724;2022-12-18T03:47:13;101519.34;;;-4.23;77.54
11223;BME280;5668;52.012;8.724;2022-12-18T03:49:46;101521.91;;;-4.20;77.54
11223;BME280;5668;52.012;8.724;2022-12-18T03:52:20;101527.81;;;-4.20;77.82
11223;BME280;5668;52.012;8.724;2022-12-18T03:54:51;101533.75;;;-4.19;77.76
11223;BME280;5668;52.012;8.724;2022-12-18T03:57:22;101536.28;;;-4.19;77.90
11223;BME280;5668;52.012;8.724;2022-12-18T03:59:54;101534.59;;;-4.22;77.65
11223;BME280;5668;52.012;8.724;2022-12-18T04:02:23;101533.75;;;-4.22;77.53
11223;BME280;5668;52.012;8.724;2022-12-18T04:04:53;101533.69;;;-4.25;77.34
11223;BME280;5668;52.012;8.724;2022-12-18T04:07:24;101533.69;;;-4.25;77.43
11223;BME280;5668;52.012;8.724;2022-12-18T04:09:55;101531.16;;;-4.25;77.57
11223;BME280;5668;52.012;8.724;2022-12-18T04:12:26;101541.31;;;-4.25;77.70
11223;BME280;5668;52.012;8.724;2022-12-18T04:14:53;101530.31;;;-4.24;77.82
11223;BME280;5668;52.012;8.724;2022-12-18T04:17:21;101534.56;;;-4.23;77.58
11223;BME280;5668;52.012;8.724;2022-12-18T04:19:49;101531.19;;;-4.24;77.72
11223;BME280;5668;52.012;8.724;2022-12-18T04:22:16;101544.72;;;-4.23;77.67
11223;BME280;5668;52.012;8.724;2022-12-18T04:24:43;101547.25;;;-4.23;77.76
11223;BME280;5668;52.012;8.724;2022-12-18T04:27:10;101543.84;;;-4.25;77.77
11223;BME280;5668;52.012;8.724;2022-12-18T04:29:39;101533.72;;;-4.24;78.07
11223;BME280;5668;52.012;8.724;2022-12-18T04:32:07;101537.09;;;-4.23;77.65
11223;BME280;5668;52.012;8.724;2022-12-18T04:34:35;101543.84;;;-4.25;77.85
11223;BME280;5668;52.012;8.724;2022-12-18T04:37:02;101548.06;;;-4.26;77.57
11223;BME280;5668;52.012;8.724;2022-12-18T04:39:29;101555.69;;;-4.24;77.61
11223;BME280;5668;52.012;8.724;2022-12-18T04:41:57;101549.78;;;-4.25;77.52
11223;BME280;5668;52.012;8.724;2022-12-18T04:44:27;101550.56;;;-4.28;77.55
11223;BME280;5668;52.012;8.724;2022-12-18T04:46:55;101564.13;;;-4.27;77.58
11223;BME280;5668;52.012;8.724;2022-12-18T04:49:22;101555.66;;;-4.28;77.69
11223;BME280;5668;52.012;8.724;2022-12-18T04:51:49;101546.38;;;-4.28;77.76
11223;BME280;5668;52.012;8.724;2022-12-18T04:54:17;101545.50;;;-4.29;77.45
11223;BME280;5668;52.012;8.724;2022-12-18T04:56:44;101544.66;;;-4.30;77.98
11223;BME280;5668;52.012;8.724;2022-12-18T04:59:12;101545.50;;;-4.31;77.68
11223;BME280;5668;52.012;8.724;2022-12-18T05:01:39;101550.56;;;-4.31;77.78
11223;BME280;5668;52.012;8.724;2022-12-18T05:04:08;101549.72;;;-4.31;77.58
11223;BME280;5668;52.012;8.724;2022-12-18T05:06:35;101544.59;;;-4.34;77.47
11223;BME280;5668;52.012;8.724;2022-12-18T05:09:02;101552.19;;;-4.36;77.36
11223;BME280;5668;52.012;8.724;2022-12-18T05:11:29;101552.19;;;-4.37;77.10
11223;BME280;5668;52.012;8.724;2022-12-18T05:13:57;101551.34;;;-4.38;77.15
11223;BME280;5668;52.012;8.724;2022-12-18T05:16:24;101541.16;;;-4.39;77.36
11223;BME280;5668;52.012;8.724;2022-12-18T05:18:51;101538.59;;;-4.41;77.13
11223;BME280;5668;52.012;8.724;2022-12-18T05:21:20;101531.81;;;-4.42;77.41
11223;BME280;5668;52.012;8.724;2022-12-18T05:23:47;101531.84;;;-4.40;77.18
11223;BME280;5668;52.012;8.724;2022-12-18T05:26:16;101528.50;;;-4.38;77.40
11223;BME280;5668;52.012;8.724;2022-12-18T05:28:44;101522.56;;;-4.40;77.45
11223;BME280;5668;52.012;8.724;2022-12-18T05:31:12;101526.81;;;-4.39;77.18
11223;BME280;5668;52.012;8.724;2022-12-18T05:33:39;101531.00;;;-4.41;77.24
11223;BME280;5668;52.012;8.724;2022-12-18T05:36:08;101527.59;;;-4.41;77.31
11223;BME280;5668;52.012;8.724;2022-12-18T05:38:38;101535.19;;;-4.46;77.38
11223;BME280;5668;52.012;8.724;2022-12-18T05:41:07;101541.91;;;-4.48;77.30
11223;BME280;5668;52.012;8.724;2022-12-18T05:43:35;101549.53;;;-4.48;77.39
11223;BME280;5668;52.012;8.724;2022-12-18T05:46:04;101543.56;;;-4.50;77.17
11223;BME280;5668;52.012;8.724;2022-12-18T05:48:32;101541.84;;;-4.54;77.44
11223;BME280;5668;52.012;8.724;2022-12-18T05:51:05;101534.19;;;-4.57;77.41
11223;BME280;5668;52.012;8.724;2022-12-18T05:53:33;101540.09;;;-4.59;77.58
11223;BME280;5668;52.012;8.724;2022-12-18T05:56:03;101529.94;;;-4.61;77.58
11223;BME280;5668;52.012;8.724;2022-12-18T05:58:31;101527.44;;;-4.59;77.72
11223;BME280;5668;52.012;8.724;2022-12-18T06:01:07;101538.41;;;-4.59;77.81
11223;BME280;5668;52.012;8.724;2022-12-18T06:03:34;101531.63;;;-4.60;77.84
11223;BME280;5668;52.012;8.724;2022-12-18T06:06:02;101535.88;;;-4.59;78.35
11223;BME280;5668;52.012;8.724;2022-12-18T06:08:29;101536.72;;;-4.58;78.18
11223;BME280;5668;52.012;8.724;2022-12-18T06:10:56;101542.69;;;-4.53;78.32
11223;BME280;5668;52.012;8.724;2022-12-18T06:13:25;101541.00;;;-4.54;78.21
11223;BME280;5668;52.012;8.724;2022-12-18T06:15:52;101545.25;;;-4.52;78.33
11223;BME280;5668;52.012;8.724;2022-12-18T06:18:19;101546.94;;;-4.52;78.44
11223;BME280;5668;52.012;8.724;2022-12-18T06:20:54;101545.16;;;-4.58;77.75
11223;BME280;5668;52.012;8.724;2022-12-18T06:23:22;101545.09;;;-4.64;77.70
11223;BME280;5668;52.012;8.724;2022-12-18T06:25:50;101551.88;;;-4.63;77.88
11223;BME280;5668;52.012;8.724;2022-12-18T06:28:17;101549.31;;;-4.64;78.39
11223;BME280;5668;52.012;8.724;2022-12-18T06:30:46;101555.25;;;-4.64;78.17
11223;BME280;5668;52.012;8.724;2022-12-18T06:33:14;101555.25;;;-4.64;78.39
11223;BME280;5668;52.012;8.724;2022-12-18T06:35:42;101562.03;;;-4.63;78.58
11223;BME280;5668;52.012;8.724;2022-12-18T06:38:09;101556.16;;;-4.59;78.57
11223;BME280;5668;52.012;8.724;2022-12-18T06:40:37;101575.56;;;-4.61;78.36
11223;BME280;5668;52.012;8.724;2022-12-18T06:43:05;101574.72;;;-4.61;78.64
11223;BME280;5668;52.012;8.724;2022-12-18T06:45:33;101576.44;;;-4.60;78.63
11223;BME280;5668;52.012;8.724;2022-12-18T06:48:01;101580.66;;;-4.58;78.55
11223;BME280;5668;52.012;8.724;2022-12-18T06:50:28;101573.91;;;-4.59;78.52
11223;BME280;5668;52.012;8.724;2022-12-18T06:52:56;101571.38;;;-4.59;78.61
11223;BME280;5668;52.012;8.724;2022-12-18T06:55:23;101573.91;;;-4.59;78.46
11223;BME280;5668;52.012;8.724;2022-12-18T06:57:50;101578.13;;;-4.59;78.52
11223;BME280;5668;52.012;8.724;2022-12-18T07:00:18;101571.34;;;-4.62;78.55
11223;BME280;5668;52.012;8.724;2022-12-18T07:02:45;101579.75;;;-4.64;78.87
11223;BME280;5668;52.012;8.724;2022-12-18T07:05:14;101573.88;;;-4.62;79.17
11223;BME280;5668;52.012;8.724;2022-12-18T07:07:41;101572.19;;;-4.61;79.02
11223;BME280;5668;52.012;8.724;2022-12-18T07:10:10;101577.28;;;-4.60;79.13
11223;BME280;5668;52.012;8.724;2022-12-18T07:12:38;101587.41;;;-4.58;79.52
11223;BME280;5668;52.012;8.724;2022-12-18T07:15:06;101591.69;;;-4.56;79.10
11223;BME280;5668;52.012;8.724;2022-12-18T07:17:34;101588.34;;;-4.53;79.42
11223;BME280;5668;52.012;8.724;2022-12-18T07:20:01;101580.72;;;-4.55;79.23
11223;BME280;5668;52.012;8.724;2022-12-18T07:22:30;101585.84;;;-4.52;79.15
11223;BME280;5668;52.012;8.724;2022-12-18T07:24:57;101584.16;;;-4.50;78.97
11223;BME280;5668;52.012;8.724;2022-12-18T07:27:24;101584.16;;;-4.50;78.99
11223;BME280;5668;52.012;8.724;2022-12-18T07:29:52;101585.84;;;-4.52;79.05
11223;BME280;5668;52.012;8.724;2022-12-18T07:32:19;101590.97;;;-4.46;78.92
11223;BME280;5668;52.012;8.724;2022-12-18T07:34:46;101579.16;;;-4.44;79.04
11223;BME280;5668;52.012;8.724;2022-12-18T07:37:13;101574.94;;;-4.42;78.86
11223;BME280;5668;52.012;8.724;2022-12-18T07:39:42;101574.09;;;-4.44;78.74
11223;BME280;5668;52.012;8.724;2022-12-18T07:42:09;101576.63;;;-4.45;78.88
11223;BME280;5668;52.012;8.724;2022-12-18T07:44:54;101573.19;;;-4.47;78.94
11223;BME280;5668;52.012;8.724;2022-12-18T07:47:21;101584.22;;;-4.45;79.22
11223;BME280;5668;52.012;8.724;2022-12-18T07:49:48;101585.91;;;-4.46;79.33
11223;BME280;5668;52.012;8.724;2022-12-18T07:52:15;101582.50;;;-4.46;79.59
11223;BME280;5668;52.012;8.724;2022-12-18T07:54:44;101577.41;;;-4.48;78.92
11223;BME280;5668;52.012;8.724;2022-12-18T07:57:11;101574.84;;;-4.49;79.18
11223;BME280;5668;52.012;8.724;2022-12-18T07:59:39;101569.75;;;-4.51;79.21
11223;BME280;5668;52.012;8.724;2022-12-18T08:02:06;101567.28;;;-4.48;79.33
11223;BME280;5668;52.012;8.724;2022-12-18T08:04:33;101572.38;;;-4.45;79.33
11223;BME280;5668;52.012;8.724;2022-12-18T08:07:02;101577.47;;;-4.45;79.22
11223;BME280;5668;52.012;8.724;2022-12-18T08:09:29;101575.78;;;-4.43;79.40
11223;BME280;5668;52.012;8.724;2022-12-18T08:11:59;101576.66;;;-4.41;79.20
11223;BME280;5668;52.012;8.724;2022-12-18T08:14:26;101581.72;;;-4.41;78.79
11223;BME280;5668;52.012;8.724;2022-12-18T08:16:53;101580.06;;;-4.39;78.86
11223;BME280;5668;52.012;8.724;2022-12-18T08:19:20;101566.50;;;-4.41;79.12
11223;BME280;5668;52.012;8.724;2022-12-18T08:21:48;101566.50;;;-4.41;78.68
11223;BME280;5668;52.012;8.724;2022-12-18T08:24:15;101562.25;;;-4.42;79.52
11223;BME280;5668;52.012;8.724;2022-12-18T08:26:42;101557.16;;;-4.43;79.20
11223;BME280;5668;52.012;8.724;2022-12-18T08:29:11;101550.41;;;-4.44;79.34
11223;BME280;5668;52.012;8.724;2022-12-18T08:31:38;101549.56;;;-4.45;79.48
11223;BME280;5668;52.012;8.724;2022-12-18T08:34:05;101549.56;;;-4.43;79.57
11223;BME280;5668;52.012;8.724;2022-12-18T08:36:32;101543.69;;;-4.41;79.84
11223;BME280;5668;52.012;8.724;2022-12-18T08:38:59;101541.97;;;-4.42;79.97
11223;BME280;5668;52.012;8.724;2022-12-18T08:41:27;101542.84;;;-4.40;80.08
11223;BME280;5668;52.012;8.724;2022-12-18T08:43:54;101545.44;;;-4.37;80.39
11223;BME280;5668;52.012;8.724;2022-12-18T08:46:41;101540.38;;;-4.34;80.78
11223;BME280;5668;52.012;8.724;2022-12-18T08:49:10;101531.97;;;-4.30;80.50
11223;BME280;5668;52.012;8.724;2022-12-18T08:51:38;101535.41;;;-4.23;80.81
11223;BME280;5668;52.012;8.724;2022-12-18T08:54:06;101537.97;;;-4.20;81.10
11223;BME280;5668;52.012;8.724;2022-12-18T08:56:34;101542.28;;;-4.14;81.34
11223;BME280;5668;52.012;8.724;2022-12-18T08:59:01;101537.22;;;-4.11;81.97
11223;BME280;5668;52.012;8.724;2022-12-18T09:01:30;101532.22;;;-4.04;82.01
11223;BME280;5668;52.012;8.724;2022-12-18T09:03:59;101519.59;;;-3.99;82.32
11223;BME280;5668;52.012;8.724;2022-12-18T09:06:26;101518.75;;;-3.95;82.40
11223;BME280;5668;52.012;8.724;2022-12-18T09:08:53;101523.03;;;-3.91;82.76
11223;BME280;5668;52.012;8.724;2022-12-18T09:11:22;101531.53;;;-3.86;82.72
11223;BME280;5668;52.012;8.724;2022-12-18T09:13:50;101533.25;;;-3.82;83.23
11223;BME280;5668;52.012;8.724;2022-12-18T09:16:18;101533.25;;;-3.82;83.55
11223;BME280;5668;52.012;8.724;2022-12-18T09:18:46;101528.22;;;-3.79;84.00
11223;BME280;5668;52.012;8.724;2022-12-18T09:21:17;101533.34;;;-3.73;83.96
11223;BME280;5668;52.012;8.724;2022-12-18T09:23:48;101529.97;;;-3.70;83.92
11223;BME280;5668;52.012;8.724;2022-12-18T09:26:16;101530.81;;;-3.68;84.23
11223;BME280;5668;52.012;8.724;2022-12-18T09:28:44;101535.94;;;-3.64;84.66
11223;BME280;5668;52.012;8.724;2022-12-18T09:31:12;101535.13;;;-3.60;84.44
11223;BME280;5668;52.012;8.724;2022-12-18T09:33:40;101543.66;;;-3.55;84.94
11223;BME280;5668;52.012;8.724;2022-12-18T09:36:14;101538.59;;;-3.50;85.09
11223;BME280;5668;52.012;8.724;2022-12-18T09:38:43;101531.00;;;-3.45;84.93
11223;BME280;5668;52.012;8.724;2022-12-18T09:41:23;101531.03;;;-3.38;85.32
11223;BME280;5668;52.012;8.724;2022-12-18T09:43:56;101526.00;;;-3.33;85.54
11223;BME280;5668;52.012;8.724;2022-12-18T09:46:29;101529.41;;;-3.28;85.13
11223;BME280;5668;52.012;8.724;2022-12-18T09:48:59;101536.22;;;-3.21;85.88
11223;BME280;5668;52.012;8.724;2022-12-18T09:51:29;101538.81;;;-3.15;85.69
11223;BME280;5668;52.012;8.724;2022-12-18T09:54:04;101539.69;;;-3.10;85.76
11223;BME280;5668;52.012;8.724;2022-12-18T09:56:36;101548.22;;;-3.03;85.78
11223;BME280;5668;52.012;8.724;2022-12-18T09:59:06;101540.59;;;-2.99;86.14
11223;BME280;5668;52.012;8.724;2022-12-18T10:01:42;101532.19;;;-2.93;85.09
11223;BME280;5668;52.012;8.724;2022-12-18T10:04:10;101524.56;;;-2.89;85.11
11223;BME280;5668;52.012;8.724;2022-12-18T10:06:42;101517.78;;;-2.87;85.06
11223;BME280;5668;52.012;8.724;2022-12-18T10:09:19;101529.69;;;-2.80;84.95
11223;BME280;5668;52.012;8.724;2022-12-18T10:11:53;101540.72;;;-2.75;85.70
11223;BME280;5668;52.012;8.724;2022-12-18T10:14:27;101536.50;;;-2.69;85.50
11223;BME280;5668;52.012;8.724;2022-12-18T10:17:03;101534.84;;;-2.64;85.52
11223;BME280;5668;52.012;8.724;2022-12-18T10:19:40;101539.06;;;-2.60;84.44
11223;BME280;5668;52.012;8.724;2022-12-18T10:22:26;101536.53;;;-2.54;84.44
11223;BME280;5668;52.012;8.724;2022-12-18T10:25:03;101530.63;;;-2.52;84.52
11223;BME280;5668;52.012;8.724;2022-12-18T10:27:32;101520.44;;;-2.47;85.00
11223;BME280;5668;52.012;8.724;2022-12-18T10:30:00;101504.38;;;-2.43;84.84
11223;BME280;5668;52.012;8.724;2022-12-18T10:32:30;101489.13;;;-2.36;85.06
11223;BME280;5668;52.012;8.724;2022-12-18T10:34:58;101473.00;;;-2.31;84.21
11223;BME280;5668;52.012;8.724;2022-12-18T10:37:27;101467.91;;;-2.28;84.69
11223;BME280;5668;52.012;8.724;2022-12-18T10:40:15;101473.84;;;-2.25;84.45
11223;BME280;5668;52.012;8.724;2022-12-18T10:42:43;101466.22;;;-2.20;83.72
11223;BME280;5668;52.012;8.724;2022-12-18T10:45:12;101453.50;;;-2.16;83.94
11223;BME280;5668;52.012;8.724;2022-12-18T10:47:46;101451.81;;;-2.11;83.37
11223;BME280;5668;52.012;8.724;2022-12-18T10:50:23;101447.56;;;-2.04;84.03
11223;BME280;5668;52.012;8.724;2022-12-18T10:52:57;101452.66;;;-2.00;84.02
11223;BME280;5668;52.012;8.724;2022-12-18T10:55:30;101453.50;;;-1.95;83.83
11223;BME280;5668;52.012;8.724;2022-12-18T10:58:16;101459.44;;;-1.86;83.41
11223;BME280;5668;52.012;8.724;2022-12-18T11:01:02;101467.06;;;-1.80;83.27
11223;BME280;5668;52.012;8.724;2022-12-18T11:03:38;101461.97;;;-1.71;82.49
11223;BME280;5668;52.012;8.724;2022-12-18T11:06:08;101451.75;;;-1.65;82.60
11223;BME280;5668;52.012;8.724;2022-12-18T11:08:36;101442.44;;;-1.59;83.00
11223;BME280;5668;52.012;8.724;2022-12-18T11:11:09;101428.81;;;-1.51;81.94
11223;BME280;5668;52.012;8.724;2022-12-18T11:13:51;101426.25;;;-1.47;81.49
11223;BME280;5668;52.012;8.724;2022-12-18T11:16:21;101421.97;;;-1.39;81.28
11223;BME280;5668;52.012;8.724;2022-12-18T11:18:49;101422.81;;;-1.34;81.27
11223;BME280;5668;52.012;8.724;2022-12-18T11:21:17;101418.56;;;-1.32;80.74
11223;BME280;5668;52.012;8.724;2022-12-18T11:23:48;101406.63;;;-1.25;81.29
11223;BME280;5668;52.012;8.724;2022-12-18T11:26:18;101391.31;;;-1.18;81.60
11223;BME280;5668;52.012;8.724;2022-12-18T11:28:49;101383.66;;;-1.16;80.68
11223;BME280;5668;52.012;8.724;2022-12-18T11:31:24;101376.00;;;-1.13;80.10
11223;BME280;5668;52.012;8.724;2022-12-18T11:34:02;101374.28;;;-1.08;80.49
11223;BME280;5668;52.012;8.724;2022-12-18T11:36:34;101378.50;;;-1.05;79.73
11223;BME280;5668;52.012;8.724;2022-12-18T11:39:09;101380.19;;;-1.04;79.44
11223;BME280;5668;52.012;8.724;2022-12-18T11:41:47;101374.22;;;-1.00;79.25
11223;BME280;5668;52.012;8.724;2022-12-18T11:44:41;101368.25;;;-0.95;79.59
11223;BME280;5668;52.012;8.724;2022-12-18T11:47:13;101362.28;;;-0.92;79.41
11223;BME280;5668;52.012;8.724;2022-12-18T11:49:43;101357.97;;;-0.86;79.54
11223;BME280;5668;52.012;8.724;2022-12-18T11:52:20;101356.25;;;-0.82;79.07
11223;BME280;5668;52.012;8.724;2022-12-18T11:54:52;101361.34;;;-0.77;79.44
11223;BME280;5668;52.012;8.724;2022-12-18T11:57:31;101357.88;;;-0.72;78.97
11223;BME280;5668;52.012;8.724;2022-12-18T12:00:09;101351.97;;;-0.79;78.78
11223;BME280;5668;52.012;8.724;2022-12-18T12:02:56;101347.72;;;-0.78;78.21
11223;BME280;5668;52.012;8.724;2022-12-18T12:05:45;101343.47;;;-0.77;78.31
11223;BME280;5668;52.012;8.724;2022-12-18T12:08:21;101346.84;;;-0.74;78.68
11223;BME280;5668;52.012;8.724;2022-12-18T12:10:57;101339.19;;;-0.72;78.95
11223;BME280;5668;52.012;8.724;2022-12-18T12:13:39;101332.38;;;-0.69;78.49
11223;BME280;5668;52.012;8.724;2022-12-18T12:16:17;101332.31;;;-0.66;78.54
11223;BME280;5668;52.012;8.724;2022-12-18T12:18:54;101332.31;;;-0.64;78.37
11223;BME280;5668;52.012;8.724;2022-12-18T12:21:28;101323.81;;;-0.65;77.76
11223;BME280;5668;52.012;8.724;2022-12-18T12:23:59;101306.00;;;-0.68;77.74
11223;BME280;5668;52.012;8.724;2022-12-18T12:26:35;101321.25;;;-0.65;77.73
11223;BME280;5668;52.012;8.724;2022-12-18T12:29:19;101314.44;;;-0.63;77.57
11223;BME280;5668;52.012;8.724;2022-12-18T12:32:04;101309.34;;;-0.63;77.72
11223;BME280;5668;52.012;8.724;2022-12-18T12:34:39;101303.38;;;-0.62;77.57
11223;BME280;5668;52.012;8.724;2022-12-18T12:37:21;101299.91;;;-0.55;77.68
11223;BME280;5668;52.012;8.724;2022-12-18T12:39:52;101297.38;;;-0.55;77.56
11223;BME280;5668;52.012;8.724;2022-12-18T12:42:29;101310.09;;;-0.52;77.90
11223;BME280;5668;52.012;8.724;2022-12-18T12:45:20;101322.00;;;-0.51;77.32
11223;BME280;5668;52.012;8.724;2022-12-18T12:47:50;101324.53;;;-0.51;77.57
11223;BME280;5668;52.012;8.724;2022-12-18T12:50:21;101316.88;;;-0.48;77.77
11223;BME280;5668;52.012;8.724;2022-12-18T12:52:51;101315.19;;;-0.49;77.63
11223;BME280;5668;52.012;8.724;2022-12-18T12:55:21;101312.63;;;-0.49;77.31
11223;BME280;5668;52.012;8.724;2022-12-18T12:57:55;101314.31;;;-0.48;77.47
11223;BME280;5668;52.012;8.724;2022-12-18T13:00:31;101313.47;;;-0.47;77.40
11223;BME280;5668;52.012;8.724;2022-12-18T13:03:11;101314.31;;;-0.46;77.54
11223;BME280;5668;52.012;8.724;2022-12-18T13:05:46;101304.94;;;-0.46;77.48
11223;BME280;5668;52.012;8.724;2022-12-18T13:08:23;101298.09;;;-0.42;77.33
11223;BME280;5668;52.012;8.724;2022-12-18T13:10:52;101295.53;;;-0.42;77.22
11223;BME280;5668;52.012;8.724;2022-12-18T13:13:51;101292.16;;;-0.44;77.10
11223;BME280;5668;52.012;8.724;2022-12-18T13:16:21;101282.78;;;-0.44;77.24
11223;BME280;5668;52.012;8.724;2022-12-18T13:18:50;101276.84;;;-0.44;77.14